Terminal Aerodrome Forecast
Issued by NWS

Home | Current Version | Previous Version | Text Only | Print | Product List | Glossary On
Versions: 1 2 3 4 5 6 7 8 9 10 11 12 13 14
000
FTUS45 KSLC 221120
TAFLGU
TAF
KLGU 221120Z 2212/2312 VRB05KT P6SM SKC
     FM222000 22006KT P6SM SCT080
     FM230400 15007KT P6SM VCSH SCT050 BKN080
     FM230800 34008KT P6SM -SHRA SCT025 BKN050=

USA.gov is the U.S. government's official web portal to all federal, state and local government web resources and services.